createdAt,value
2023-04-16T00:00:43.423Z,17.73
2023-04-16T00:03:10.884Z,17.63
2023-04-16T00:05:39.426Z,17.70
2023-04-16T00:08:07.144Z,18.65
2023-04-16T00:10:37.677Z,19.08
2023-04-16T00:13:04.874Z,18.90
2023-04-16T00:15:32.027Z,20.42
2023-04-16T00:18:00.605Z,19.05
2023-04-16T00:20:28.044Z,20.73
2023-04-16T00:22:55.479Z,21.13
2023-04-16T00:25:23.254Z,20.63
2023-04-16T00:27:50.838Z,20.45
2023-04-16T00:30:18.344Z,20.10
2023-04-16T00:32:45.782Z,19.67
2023-04-16T00:35:13.511Z,20.05
2023-04-16T00:37:40.853Z,20.38
2023-04-16T00:40:08.897Z,20.17
2023-04-16T00:42:41.640Z,19.65
2023-04-16T00:45:11.626Z,19.98
2023-04-16T00:47:39.596Z,20.88
2023-04-16T00:50:08.262Z,19.90
2023-04-16T00:52:35.934Z,19.70
2023-04-16T00:55:03.570Z,20.77
2023-04-16T00:57:31.059Z,20.90
2023-04-16T00:59:58.901Z,21.30
2023-04-16T01:02:26.803Z,20.40
2023-04-16T01:04:55.257Z,22.50
2023-04-16T01:07:22.588Z,21.38
2023-04-16T01:09:50.178Z,21.95
2023-04-16T01:12:17.436Z,21.50
2023-04-16T01:14:44.902Z,20.30
2023-04-16T01:17:12.260Z,19.95
2023-04-16T01:19:39.829Z,22.27
2023-04-16T01:22:07.382Z,20.83
2023-04-16T01:24:35.664Z,23.48
2023-04-16T01:27:03.099Z,22.35
2023-04-16T01:29:30.413Z,21.30
2023-04-16T01:31:59.396Z,21.75
2023-04-16T01:34:30.965Z,20.65
2023-04-16T01:36:58.802Z,20.30
2023-04-16T01:39:26.036Z,19.33
2023-04-16T01:41:53.109Z,19.35
2023-04-16T01:44:21.792Z,19.45
2023-04-16T01:46:49.947Z,18.98
2023-04-16T01:49:18.007Z,20.83
2023-04-16T01:51:45.735Z,20.52
2023-04-16T01:54:13.141Z,21.02
2023-04-16T01:56:40.270Z,19.13
2023-04-16T01:59:07.942Z,20.73
2023-04-16T02:01:40.525Z,20.15
2023-04-16T02:04:13.304Z,18.50
2023-04-16T02:06:41.710Z,18.77
2023-04-16T02:09:09.674Z,18.08
2023-04-16T02:11:38.617Z,18.55
2023-04-16T02:14:05.816Z,18.40
2023-04-16T02:16:33.075Z,18.20
2023-04-16T02:19:10.063Z,16.85
2023-04-16T02:21:38.353Z,17.55
2023-04-16T02:24:06.597Z,17.50
2023-04-16T02:26:34.910Z,16.73
2023-04-16T02:29:07.224Z,18.20
2023-04-16T02:31:41.681Z,17.65
2023-04-16T02:34:12.827Z,15.52
2023-04-16T02:36:41.913Z,15.95
2023-04-16T02:39:09.255Z,15.43
2023-04-16T02:41:38.525Z,16.25
2023-04-16T02:44:06.596Z,16.77
2023-04-16T02:46:33.765Z,16.88
2023-04-16T02:49:01.423Z,17.10
2023-04-16T02:51:30.186Z,17.38
2023-04-16T02:53:57.432Z,16.83
2023-04-16T02:56:24.677Z,18.00
2023-04-16T02:58:52.445Z,15.68
2023-04-16T03:01:19.777Z,18.05
2023-04-16T03:03:47.438Z,19.95
2023-04-16T03:06:15.323Z,17.13
2023-04-16T03:08:42.753Z,18.70
2023-04-16T03:11:10.064Z,17.67
2023-04-16T03:13:37.258Z,18.90
2023-04-16T03:16:04.910Z,18.50
2023-04-16T03:18:32.193Z,16.75
2023-04-16T03:20:59.549Z,18.90
2023-04-16T03:26:23.493Z,19.50
2023-04-16T03:28:51.555Z,17.33
2023-04-16T03:31:18.840Z,18.98
2023-04-16T03:33:46.789Z,18.05
2023-04-16T03:36:14.612Z,19.05
2023-04-16T03:38:42.549Z,18.35
2023-04-16T03:41:10.032Z,18.08
2023-04-16T03:43:37.777Z,20.02
2023-04-16T03:46:05.883Z,18.10
2023-04-16T03:48:33.289Z,20.20
2023-04-16T03:51:01.077Z,20.95
2023-04-16T03:53:29.373Z,20.13
2023-04-16T03:55:56.624Z,19.95
2023-04-16T03:58:24.507Z,20.67
2023-04-16T04:00:55.998Z,20.35
2023-04-16T04:03:23.787Z,20.92
2023-04-16T04:05:51.739Z,20.73
2023-04-16T04:08:26.200Z,20.75
2023-04-16T04:10:54.205Z,22.92
2023-04-16T04:13:23.575Z,21.55
2023-04-16T04:15:52.502Z,20.02
2023-04-16T04:18:22.521Z,22.33
2023-04-16T04:20:51.652Z,22.00
2023-04-16T04:23:21.462Z,21.95
2023-04-16T04:25:48.772Z,21.20
2023-04-16T04:28:15.920Z,22.88
2023-04-16T04:30:43.251Z,23.73
2023-04-16T04:33:11.324Z,24.33
2023-04-16T04:35:39.696Z,20.55
2023-04-16T04:38:09.315Z,23.05
2023-04-16T04:40:36.478Z,25.02
2023-04-16T04:43:05.032Z,21.90
2023-04-16T04:45:33.965Z,21.63
2023-04-16T04:48:01.162Z,23.83
2023-04-16T04:50:29.741Z,21.98
2023-04-16T04:52:58.066Z,24.20
2023-04-16T04:55:25.692Z,22.55
2023-04-16T04:57:52.848Z,22.48
2023-04-16T05:00:20.903Z,24.88
2023-04-16T05:02:53.703Z,23.65
2023-04-16T05:05:21.503Z,24.02
2023-04-16T05:07:48.816Z,24.52
2023-04-16T05:10:16.258Z,24.35
2023-04-16T05:12:43.456Z,24.48
2023-04-16T05:15:11.162Z,23.88
2023-04-16T05:17:38.367Z,22.30
2023-04-16T05:20:09.310Z,24.52
2023-04-16T05:22:36.861Z,25.08
2023-04-16T05:25:05.646Z,24.48
2023-04-16T05:27:33.447Z,24.58
2023-04-16T05:30:00.663Z,24.58
2023-04-16T05:32:28.017Z,24.50
2023-04-16T05:34:56.262Z,22.05
2023-04-16T05:37:24.004Z,23.02
2023-04-16T05:39:51.375Z,22.77
2023-04-16T05:42:18.576Z,21.85
2023-04-16T05:44:45.758Z,22.98
2023-04-16T05:47:12.963Z,22.13
2023-04-16T05:49:40.076Z,21.75
2023-04-16T05:52:07.560Z,21.77
2023-04-16T05:54:34.876Z,20.75
2023-04-16T05:57:02.383Z,25.35
2023-04-16T05:59:31.017Z,23.67
2023-04-16T06:01:58.658Z,26.05
2023-04-16T06:04:26.268Z,24.73
2023-04-16T06:06:53.702Z,26.83
2023-04-16T06:09:20.794Z,29.88
2023-04-16T06:11:48.497Z,29.98
2023-04-16T06:14:15.614Z,31.80
2023-04-16T06:16:42.879Z,29.73
2023-04-16T06:19:10.203Z,33.83
2023-04-16T06:21:38.233Z,33.05
2023-04-16T06:24:06.146Z,34.75
2023-04-16T06:26:33.301Z,35.42
2023-04-16T06:29:01.068Z,35.30
2023-04-16T06:31:28.479Z,37.13
2023-04-16T06:33:55.862Z,39.95
2023-04-16T06:36:23.107Z,39.75
2023-04-16T06:38:51.829Z,39.72
2023-04-16T06:41:19.116Z,40.10
2023-04-16T06:43:47.086Z,42.85
2023-04-16T06:46:15.115Z,40.80
2023-04-16T06:48:42.556Z,42.05
2023-04-16T06:51:10.096Z,41.92
2023-04-16T06:53:37.981Z,41.35
2023-04-16T06:56:06.058Z,47.67
2023-04-16T06:58:33.426Z,42.42
2023-04-16T07:01:02.687Z,46.30
2023-04-16T07:03:30.483Z,44.65
2023-04-16T07:05:58.221Z,43.90
2023-04-16T07:08:25.674Z,43.15
2023-04-16T07:10:53.884Z,48.03
2023-04-16T07:13:21.670Z,44.85
2023-04-16T07:15:49.468Z,42.20
2023-04-16T07:18:17.026Z,43.60
2023-04-16T07:20:44.952Z,44.15
2023-04-16T07:23:12.389Z,42.47
2023-04-16T07:25:40.214Z,41.45
2023-04-16T07:28:07.495Z,40.95
2023-04-16T07:30:35.692Z,42.08
2023-04-16T07:33:06.472Z,41.88
2023-04-16T07:35:33.746Z,46.97
2023-04-16T07:38:00.836Z,44.03
2023-04-16T07:40:28.092Z,42.72
2023-04-16T07:42:56.373Z,43.70
2023-04-16T07:45:24.607Z,41.75
2023-04-16T07:47:52.023Z,43.33
2023-04-16T07:50:19.814Z,42.28
2023-04-16T07:52:47.920Z,39.95
2023-04-16T07:55:15.299Z,40.15
2023-04-16T07:57:42.544Z,39.72
2023-04-16T08:00:11.266Z,39.53
2023-04-16T08:02:42.985Z,36.63
2023-04-16T08:05:12.538Z,39.20
2023-04-16T08:07:45.771Z,37.45
2023-04-16T08:10:13.073Z,38.38
2023-04-16T08:12:40.719Z,34.85
2023-04-16T08:15:08.783Z,35.60
2023-04-16T08:17:37.731Z,35.40
2023-04-16T08:20:14.955Z,34.92
2023-04-16T08:22:46.660Z,33.67
2023-04-16T08:25:15.124Z,31.55
2023-04-16T08:27:42.314Z,32.83
2023-04-16T08:30:09.784Z,34.83
2023-04-16T08:32:37.149Z,34.00
2023-04-16T08:35:05.069Z,34.00
2023-04-16T08:37:32.976Z,33.55
2023-04-16T08:40:01.008Z,33.53
2023-04-16T08:42:41.406Z,32.95
2023-04-16T08:45:15.451Z,30.75
2023-04-16T08:47:51.049Z,31.05
2023-04-16T08:50:26.975Z,31.80
2023-04-16T08:53:05.237Z,29.88
2023-04-16T08:55:49.208Z,31.98
2023-04-16T08:58:22.456Z,29.27
2023-04-16T09:00:50.624Z,28.90
2023-04-16T09:03:21.615Z,32.45
2023-04-16T09:05:51.576Z,34.88
2023-04-16T09:08:20.642Z,29.95
2023-04-16T09:10:49.509Z,26.48
2023-04-16T09:13:20.431Z,28.23
2023-04-16T09:15:53.488Z,28.73
2023-04-16T09:18:21.255Z,27.23
2023-04-16T09:20:59.316Z,27.83
2023-04-16T09:23:32.628Z,23.88
2023-04-16T09:26:00.974Z,26.05
2023-04-16T09:28:50.787Z,24.10
2023-04-16T09:31:19.813Z,25.42
2023-04-16T09:34:14.294Z,25.65
2023-04-16T09:36:41.846Z,25.23
2023-04-16T09:39:22.612Z,28.33
2023-04-16T09:41:54.888Z,27.58
2023-04-16T09:44:42.074Z,26.27
2023-04-16T09:47:10.876Z,25.13
2023-04-16T09:49:43.489Z,24.30
2023-04-16T09:52:21.672Z,25.88
2023-04-16T09:54:55.274Z,26.38
2023-04-16T09:57:26.180Z,28.25
2023-04-16T10:00:02.177Z,27.67
2023-04-16T10:02:34.660Z,31.13
2023-04-16T10:05:08.246Z,26.63
2023-04-16T10:07:39.551Z,26.95
2023-04-16T10:10:08.265Z,26.20
2023-04-16T10:12:35.939Z,27.83
2023-04-16T10:15:03.864Z,24.77
2023-04-16T10:17:32.347Z,26.90
2023-04-16T10:20:02.670Z,26.48
2023-04-16T10:22:30.285Z,26.10
2023-04-16T10:24:59.253Z,27.13
2023-04-16T10:27:28.661Z,25.85
2023-04-16T10:30:00.549Z,28.85
2023-04-16T10:32:28.866Z,29.08
2023-04-16T10:34:57.011Z,29.27
2023-04-16T10:37:32.854Z,26.85
2023-04-16T10:40:00.880Z,26.90
2023-04-16T10:42:32.021Z,24.77
2023-04-16T10:45:00.681Z,25.00
2023-04-16T10:47:29.693Z,31.85
2023-04-16T10:49:59.062Z,29.13
2023-04-16T10:52:30.419Z,25.77
2023-04-16T10:55:00.978Z,27.33
2023-04-16T10:57:30.302Z,26.27
2023-04-16T10:59:59.383Z,27.52
2023-04-16T11:02:29.779Z,28.75
2023-04-16T11:04:58.884Z,25.33
2023-04-16T11:07:35.357Z,26.80
2023-04-16T11:10:08.158Z,22.05
2023-04-16T11:12:56.419Z,22.73
2023-04-16T11:15:28.271Z,21.73
2023-04-16T11:17:59.482Z,24.33
2023-04-16T11:20:31.848Z,22.73
2023-04-16T11:23:16.893Z,23.63
2023-04-16T11:25:57.478Z,22.30
2023-04-16T11:28:36.865Z,22.10
2023-04-16T11:31:12.754Z,18.80
2023-04-16T11:33:40.071Z,19.27
2023-04-16T11:36:07.696Z,20.55
2023-04-16T11:38:42.998Z,18.35
2023-04-16T11:41:11.216Z,19.38
2023-04-16T11:43:38.564Z,18.05
2023-04-16T11:46:16.732Z,20.67
2023-04-16T11:48:55.418Z,21.30
2023-04-16T11:51:23.634Z,19.17
2023-04-16T11:53:54.005Z,15.98
2023-04-16T11:56:34.461Z,17.70
2023-04-16T11:59:21.097Z,17.40
2023-04-16T12:01:52.647Z,13.02
2023-04-16T12:04:26.949Z,14.05
2023-04-16T12:07:14.863Z,15.40
2023-04-16T12:09:44.020Z,15.52
2023-04-16T12:12:32.498Z,13.57
2023-04-16T12:15:04.147Z,14.65
2023-04-16T12:17:36.807Z,12.77
2023-04-16T12:20:15.853Z,13.50
2023-04-16T12:22:49.645Z,11.60
2023-04-16T12:25:18.535Z,12.65
2023-04-16T12:27:53.811Z,12.35
2023-04-16T12:30:26.822Z,12.10
2023-04-16T12:33:18.435Z,11.43
2023-04-16T12:35:46.359Z,11.88
2023-04-16T12:38:15.330Z,11.70
2023-04-16T12:40:43.721Z,12.13
2023-04-16T12:43:12.267Z,12.73
2023-04-16T12:45:40.937Z,9.98
2023-04-16T12:48:08.486Z,12.50
2023-04-16T12:50:36.255Z,10.15
2023-04-16T12:53:04.078Z,11.50
2023-04-16T12:55:31.346Z,9.95
2023-04-16T12:57:58.454Z,10.50
2023-04-16T13:00:25.888Z,8.27
2023-04-16T13:02:53.684Z,10.77
2023-04-16T13:05:21.701Z,9.40
2023-04-16T13:07:49.102Z,9.30
2023-04-16T13:10:16.699Z,9.10
2023-04-16T13:12:44.419Z,9.30
2023-04-16T13:15:12.141Z,9.00
2023-04-16T13:17:39.623Z,8.75
2023-04-16T13:20:07.880Z,9.77
2023-04-16T13:22:35.406Z,8.68
2023-04-16T13:25:03.757Z,10.57
2023-04-16T13:27:32.110Z,8.38
2023-04-16T13:30:00.873Z,7.95
2023-04-16T13:32:28.837Z,11.05
2023-04-16T13:34:56.054Z,10.73
2023-04-16T13:37:23.257Z,11.57
2023-04-16T13:39:50.506Z,11.57
2023-04-16T13:42:17.823Z,10.35
2023-04-16T13:44:48.733Z,10.05
2023-04-16T13:47:16.673Z,10.73
2023-04-16T13:49:44.131Z,9.75
2023-04-16T13:52:11.718Z,10.02
2023-04-16T13:54:40.272Z,11.23
2023-04-16T13:57:07.634Z,11.88
2023-04-16T13:59:35.236Z,13.10
2023-04-16T14:02:02.873Z,13.35
2023-04-16T14:04:31.232Z,12.48
2023-04-16T14:06:58.922Z,12.25
2023-04-16T14:09:26.625Z,12.65
2023-04-16T14:11:55.101Z,14.52
2023-04-16T14:14:22.382Z,13.60
2023-04-16T14:16:50.871Z,12.35
2023-04-16T14:19:18.377Z,13.68
2023-04-16T14:21:45.748Z,13.70
2023-04-16T14:24:13.143Z,12.48
2023-04-16T14:26:44.402Z,14.05
2023-04-16T14:29:11.915Z,13.32
2023-04-16T14:31:39.787Z,13.68
2023-04-16T14:34:12.598Z,13.40
2023-04-16T14:36:40.802Z,14.60
2023-04-16T14:39:08.963Z,14.63
2023-04-16T14:41:36.686Z,17.10
2023-04-16T14:44:06.048Z,16.50
2023-04-16T14:46:33.892Z,13.73
2023-04-16T14:49:06.400Z,16.05
2023-04-16T14:51:33.941Z,14.85
2023-04-16T14:54:01.796Z,14.95
2023-04-16T14:56:30.801Z,16.27
2023-04-16T14:58:58.388Z,14.93
2023-04-16T15:01:26.134Z,16.02
2023-04-16T15:03:56.594Z,17.52
2023-04-16T15:06:24.290Z,18.48
2023-04-16T15:08:52.810Z,17.48
2023-04-16T15:11:20.378Z,17.33
2023-04-16T15:13:47.680Z,21.05
2023-04-16T15:16:15.590Z,17.73
2023-04-16T15:18:43.188Z,19.20
2023-04-16T15:21:12.461Z,19.85
2023-04-16T15:24:06.418Z,20.90
2023-04-16T15:26:33.885Z,20.08
2023-04-16T15:29:06.843Z,20.77
2023-04-16T15:31:42.477Z,21.70
2023-04-16T15:34:13.493Z,23.83
2023-04-16T15:36:41.893Z,22.05
2023-04-16T15:39:09.867Z,24.13
2023-04-16T15:41:50.189Z,24.80
2023-04-16T15:44:26.212Z,24.10
2023-04-16T15:47:08.715Z,25.13
2023-04-16T15:49:39.512Z,26.15
2023-04-16T15:52:07.127Z,24.80
2023-04-16T15:54:34.819Z,27.00
2023-04-16T15:57:02.169Z,25.98
2023-04-16T15:59:29.844Z,26.02
2023-04-16T16:01:57.424Z,26.33
2023-04-16T16:04:26.701Z,28.52
2023-04-16T16:06:54.387Z,26.55
2023-04-16T16:09:26.246Z,27.05
2023-04-16T16:11:54.530Z,27.90
2023-04-16T16:14:22.944Z,27.50
2023-04-16T16:16:51.263Z,27.17
2023-04-16T16:19:18.762Z,27.90
2023-04-16T16:21:46.150Z,26.67
2023-04-16T16:24:14.002Z,28.42
2023-04-16T16:26:41.508Z,28.42
2023-04-16T16:29:09.274Z,28.92
2023-04-16T16:31:36.925Z,27.75
2023-04-16T16:34:19.984Z,29.52
2023-04-16T16:36:48.898Z,30.65
2023-04-16T16:39:16.534Z,30.67
2023-04-16T16:41:45.013Z,30.95
2023-04-16T16:44:12.279Z,34.28
2023-04-16T16:46:39.782Z,33.30
2023-04-16T16:49:09.548Z,38.42
2023-04-16T16:51:37.490Z,34.75
2023-04-16T16:54:08.338Z,35.60
2023-04-16T16:56:35.703Z,38.08
2023-04-16T16:59:04.747Z,36.92
2023-04-16T17:01:39.224Z,37.85
2023-04-16T17:04:08.022Z,35.40
2023-04-16T17:06:35.790Z,34.78
2023-04-16T17:09:05.546Z,36.30
2023-04-16T17:11:33.098Z,39.63
2023-04-16T17:14:00.448Z,35.92
2023-04-16T17:16:27.736Z,37.25
2023-04-16T17:18:55.735Z,37.22
2023-04-16T17:21:22.939Z,35.47
2023-04-16T17:23:50.577Z,40.58
2023-04-16T17:26:24.207Z,38.88
2023-04-16T17:28:51.559Z,40.10
2023-04-16T17:31:18.970Z,36.83
2023-04-16T17:33:46.509Z,37.25
2023-04-16T17:36:14.075Z,37.67
2023-04-16T17:38:43.627Z,38.50
2023-04-16T17:41:12.621Z,39.80
2023-04-16T17:43:39.879Z,41.63
2023-04-16T17:46:11.849Z,38.25
2023-04-16T17:48:39.523Z,39.45
2023-04-16T17:51:16.378Z,41.75
2023-04-16T17:53:44.728Z,39.90
2023-04-16T17:56:14.641Z,39.35
2023-04-16T17:58:41.881Z,35.42
2023-04-16T18:01:09.476Z,39.58
2023-04-16T18:03:39.975Z,35.75
2023-04-16T18:06:07.444Z,38.20
2023-04-16T18:08:36.925Z,38.67
2023-04-16T18:11:08.557Z,39.80
2023-04-16T18:13:36.205Z,40.05
2023-04-16T18:16:03.573Z,44.97
2023-04-16T18:18:30.995Z,41.13
2023-04-16T18:20:58.245Z,41.28
2023-04-16T18:23:25.448Z,43.42
2023-04-16T18:25:53.086Z,40.25
2023-04-16T18:28:21.286Z,42.70
2023-04-16T18:35:48.196Z,44.75
2023-04-16T18:38:16.060Z,39.47
2023-04-16T18:40:43.631Z,41.28
2023-04-16T18:43:11.115Z,40.17
2023-04-16T18:45:38.396Z,39.28
2023-04-16T18:48:06.086Z,40.55
2023-04-16T18:50:33.718Z,36.47
2023-04-16T18:53:01.326Z,38.95
2023-04-16T18:55:30.049Z,35.17
2023-04-16T18:57:57.728Z,35.60
2023-04-16T19:00:25.082Z,39.00
2023-04-16T19:02:52.782Z,37.17
2023-04-16T19:05:22.947Z,39.35
2023-04-16T19:07:51.078Z,37.00
2023-04-16T19:10:18.880Z,38.03
2023-04-16T19:12:57.008Z,39.90
2023-04-16T19:15:24.666Z,38.72
2023-04-16T19:17:52.241Z,38.63
2023-04-16T19:20:23.068Z,38.85
2023-04-16T19:22:51.438Z,38.22
2023-04-16T19:25:19.092Z,40.85
2023-04-16T19:27:46.471Z,36.75
2023-04-16T19:30:14.756Z,39.05
2023-04-16T19:32:42.597Z,39.35
2023-04-16T19:35:11.306Z,37.50
2023-04-16T19:37:39.582Z,36.28
2023-04-16T19:40:08.719Z,36.22
2023-04-16T19:42:36.825Z,37.28
2023-04-16T19:45:04.955Z,33.00
2023-04-16T19:47:33.000Z,33.47
2023-04-16T19:50:02.229Z,34.53
2023-04-16T19:52:29.996Z,35.70
2023-04-16T19:54:57.406Z,31.15
2023-04-16T19:57:24.700Z,30.88
2023-04-16T19:59:54.042Z,33.10
2023-04-16T20:02:22.811Z,28.45
2023-04-16T20:04:50.825Z,33.47
2023-04-16T20:07:18.553Z,34.78
2023-04-16T20:09:46.149Z,34.30
2023-04-16T20:12:13.374Z,31.92
2023-04-16T20:14:41.909Z,33.28
2023-04-16T20:17:22.400Z,31.38
2023-04-16T20:19:52.784Z,34.95
2023-04-16T20:22:20.224Z,30.67
2023-04-16T20:24:48.375Z,30.35
2023-04-16T20:27:17.035Z,33.58
2023-04-16T20:29:44.265Z,34.15
2023-04-16T20:32:12.258Z,32.95
2023-04-16T20:34:40.673Z,36.15
2023-04-16T20:37:12.381Z,36.42
2023-04-16T20:39:40.768Z,36.42
2023-04-16T20:42:11.911Z,33.58
2023-04-16T20:44:42.512Z,34.63
2023-04-16T20:47:15.394Z,33.72
2023-04-16T20:49:47.329Z,35.70
2023-04-16T20:52:16.541Z,34.33
2023-04-16T20:54:44.573Z,32.58
2023-04-16T20:57:12.290Z,36.70
2023-04-16T20:59:39.864Z,31.85
2023-04-16T21:02:08.385Z,34.58
2023-04-16T21:04:36.162Z,32.85
2023-04-16T21:07:04.346Z,34.00
2023-04-16T21:09:31.983Z,34.47
2023-04-16T21:11:59.477Z,31.67
2023-04-16T21:14:27.064Z,32.85
2023-04-16T21:16:57.202Z,32.03
2023-04-16T21:19:25.015Z,31.33
2023-04-16T21:21:52.426Z,31.67
2023-04-16T21:24:20.399Z,31.73
2023-04-16T21:26:48.392Z,31.70
2023-04-16T21:29:15.997Z,28.98
2023-04-16T21:31:43.325Z,28.58
2023-04-16T21:34:13.389Z,28.40
2023-04-16T21:36:41.074Z,29.65
2023-04-16T21:39:08.807Z,29.27
2023-04-16T21:41:37.778Z,24.92
2023-04-16T21:44:05.580Z,27.33
2023-04-16T21:46:33.800Z,29.35
2023-04-16T21:49:01.361Z,25.48
2023-04-16T21:51:31.850Z,26.02
2023-04-16T21:53:59.552Z,25.30
2023-04-16T21:56:29.203Z,25.15
2023-04-16T21:58:56.875Z,22.75
2023-04-16T22:01:24.568Z,26.05
2023-04-16T22:03:55.367Z,23.85
2023-04-16T22:06:28.432Z,27.38
2023-04-16T22:08:58.876Z,25.85
2023-04-16T22:11:26.570Z,24.35
2023-04-16T22:13:57.665Z,23.67
2023-04-16T22:16:25.692Z,26.95
2023-04-16T22:18:55.000Z,26.75
2023-04-16T22:21:22.459Z,26.42
2023-04-16T22:23:57.376Z,27.63
2023-04-16T22:26:25.047Z,27.55
2023-04-16T22:28:52.315Z,27.23
2023-04-16T22:31:19.922Z,26.02
2023-04-16T22:33:47.189Z,26.00
2023-04-16T22:36:14.428Z,25.08
2023-04-16T22:38:41.740Z,28.90
2023-04-16T22:41:09.045Z,28.10
2023-04-16T22:43:37.197Z,25.33
2023-04-16T22:46:08.122Z,27.83
2023-04-16T22:48:38.733Z,25.52
2023-04-16T22:51:09.161Z,27.48
2023-04-16T22:53:36.946Z,28.42
2023-04-16T22:56:07.194Z,24.02
2023-04-16T22:58:34.785Z,26.55
2023-04-16T23:01:02.384Z,26.55
2023-04-16T23:03:29.954Z,26.25
2023-04-16T23:05:57.211Z,27.77
2023-04-16T23:08:24.495Z,24.63
2023-04-16T23:10:51.991Z,26.52
2023-04-16T23:13:19.349Z,27.17
2023-04-16T23:15:49.316Z,26.15
2023-04-16T23:18:17.002Z,25.73
2023-04-16T23:20:44.750Z,24.52
2023-04-16T23:23:12.329Z,26.35
2023-04-16T23:25:42.865Z,28.20
2023-04-16T23:28:13.838Z,26.42
2023-04-16T23:30:53.113Z,27.10
2023-04-16T23:33:21.079Z,24.90
2023-04-16T23:35:48.485Z,26.20
2023-04-16T23:38:16.405Z,25.67
2023-04-16T23:40:43.574Z,27.30
2023-04-16T23:43:15.591Z,25.98
2023-04-16T23:45:43.085Z,25.98
2023-04-16T23:48:10.426Z,27.38
2023-04-16T23:50:37.716Z,26.52
2023-04-16T23:53:04.913Z,25.63
2023-04-16T23:55:32.157Z,27.48
2023-04-16T23:57:59.431Z,22.80
